Terminal Aerodrome Forecast
Issued by NWS

Current Version | Previous Version | Text Only | Print | Product List | Glossary Off
Versions: 1 2 3 4 5 6 7 8 9 10 11 12 13 14

242
FTUS41 KPBZ 251724
TAFHLG
TAF
KHLG 251724Z 2518/2618 27007KT P6SM FEW050 BKN250
     FM260400 18004KT P6SM VCSH BKN100
     FM261200 21006KT P6SM BKN050
     FM261600 21008KT P6SM BKN080=

USA.gov is the U.S. government's official web portal to all federal, state and local government web resources and services.